Time;durP1;ratioP1;P1;durP2;ratioP2;P2;SDS_P1;SDS_P2;PMS_P1;PMS_P2;Temp;Humidity;BMP_temperature;BMP_pressure;BME280_temperature;BME280_humidity;BME280_pressure;Samples;Min_cycle;Max_cycle;Signal;HPM_P1;HPM_P2
2023/01/07 00:00:00;;;;;;;1.77;1.40;;;11.40;99.90;;;;;;4142842;28;20041;-69
2023/01/07 00:02:01;;;;;;;1.80;1.42;;;11.40;99.90;;;;;;4137467;28;20038;-70
2023/01/07 00:04:03;;;;;;;1.75;1.33;;;11.40;99.90;;;;;;4140786;28;20992;-70
2023/01/07 00:06:07;;;;;;;2.85;1.65;;;11.40;99.90;;;;;;4131409;28;20033;-70
2023/01/07 00:08:08;;;;;;;1.92;1.60;;;11.40;99.90;;;;;;4140761;28;20034;-70
2023/01/07 00:10:09;;;;;;;1.88;1.55;;;11.40;99.90;;;;;;4139756;28;20130;-70
2023/01/07 00:12:09;;;;;;;3.40;1.48;;;11.40;99.90;;;;;;4142744;28;20034;-70
2023/01/07 00:14:12;;;;;;;2.85;1.63;;;11.30;99.90;;;;;;4136057;28;20125;-70
2023/01/07 00:16:15;;;;;;;2.65;1.65;;;11.40;99.90;;;;;;4140928;28;20046;-70
2023/01/07 00:18:16;;;;;;;3.67;1.42;;;11.40;99.90;;;;;;4134047;28;20084;-70
2023/01/07 00:20:16;;;;;;;1.83;1.50;;;11.40;99.90;;;;;;4141311;28;20038;-70
2023/01/07 00:22:17;;;;;;;2.17;1.55;;;11.30;99.90;;;;;;4143142;28;20100;-70
2023/01/07 00:24:18;;;;;;;2.67;1.40;;;11.40;99.90;;;;;;4143625;28;20034;-70
2023/01/07 00:26:20;;;;;;;2.95;1.50;;;11.30;99.90;;;;;;4143162;28;20070;-70
2023/01/07 00:28:21;;;;;;;;;;;11.40;99.90;;;;;;4143043;28;20044;-70
2023/01/07 00:30:21;;;;;;;2.05;1.55;;;11.30;99.90;;;;;;4142796;28;20358;-69
2023/01/07 00:32:46;;;;;;;2.22;1.38;;;11.30;99.90;;;;;;4143524;28;20056;-70
2023/01/07 00:34:43;;;;;;;2.33;1.40;;;11.30;99.90;;;;;;4143093;28;20030;-71
2023/01/07 00:36:45;;;;;;;2.45;1.63;;;11.30;99.90;;;;;;4137161;28;20042;-69
2023/01/07 00:38:46;;;;;;;2.20;1.50;;;11.30;99.90;;;;;;4137876;28;20092;-70
2023/01/07 00:40:46;;;;;;;2.30;1.70;;;11.30;99.90;;;;;;4133537;28;20450;-70
2023/01/07 00:42:54;;;;;;;2.42;1.50;;;11.30;99.90;;;;;;4136918;28;20543;-70
2023/01/07 00:44:54;;;;;;;4.55;1.70;;;11.30;99.90;;;;;;4142713;28;20459;-71
2023/01/07 00:46:55;;;;;;;3.35;2.00;;;11.30;99.90;;;;;;4140879;28;20030;-69
2023/01/07 00:48:56;;;;;;;2.10;1.48;;;11.30;99.90;;;;;;4135637;28;20034;-69
2023/01/07 00:50:56;;;;;;;2.55;1.73;;;11.30;99.90;;;;;;4143184;28;20030;-70
2023/01/07 00:52:57;;;;;;;3.40;1.70;;;11.30;99.90;;;;;;4138319;28;20037;-69
2023/01/07 00:54:58;;;;;;;2.28;1.73;;;11.30;99.90;;;;;;4143227;28;20391;-70
2023/01/07 00:56:58;;;;;;;1.75;1.58;;;11.30;99.90;;;;;;4132365;28;20030;-70
2023/01/07 00:58:59;;;;;;;2.47;1.67;;;11.30;99.90;;;;;;4140665;28;20030;-69
2023/01/07 01:01:00;;;;;;;1.48;1.30;;;11.30;99.90;;;;;;4133479;28;20088;-70
2023/01/07 01:03:01;;;;;;;2.30;1.60;;;11.30;99.90;;;;;;4141370;28;20377;-70
2023/01/07 01:05:02;;;;;;;2.03;1.70;;;11.30;99.90;;;;;;4144207;28;20037;-70
2023/01/07 01:07:03;;;;;;;3.25;1.70;;;11.30;99.90;;;;;;4134840;28;20042;-70
2023/01/07 01:09:03;;;;;;;1.75;1.42;;;11.30;99.90;;;;;;4137386;28;20029;-70
2023/01/07 01:11:05;;;;;;;2.13;1.60;;;11.30;99.90;;;;;;4117307;28;20037;-70
2023/01/07 01:13:06;;;;;;;2.38;1.98;;;11.30;99.90;;;;;;4138971;28;20030;-69
2023/01/07 01:15:10;;;;;;;2.42;1.63;;;11.30;99.90;;;;;;4146327;28;20042;-70
2023/01/07 01:17:10;;;;;;;4.18;1.52;;;11.30;99.90;;;;;;4138812;28;20049;-70
2023/01/07 01:19:11;;;;;;;1.52;1.40;;;11.30;99.90;;;;;;4148810;28;20430;-71
2023/01/07 01:21:14;;;;;;;1.88;1.42;;;11.30;99.90;;;;;;4140508;28;20033;-70
2023/01/07 01:23:15;;;;;;;1.58;1.48;;;11.30;99.90;;;;;;4144073;28;20183;-70
2023/01/07 01:25:15;;;;;;;2.03;1.63;;;11.40;99.90;;;;;;4142164;28;20034;-70
2023/01/07 01:27:16;;;;;;;1.67;1.48;;;11.40;99.90;;;;;;4141692;28;20466;-70
2023/01/07 01:29:17;;;;;;;2.35;1.80;;;11.40;99.90;;;;;;4133368;28;20495;-70
2023/01/07 01:31:18;;;;;;;1.73;1.60;;;11.40;99.90;;;;;;4139518;28;20112;-70
2023/01/07 01:33:18;;;;;;;2.65;1.67;;;11.40;99.90;;;;;;4143070;28;20038;-70
2023/01/07 01:35:19;;;;;;;3.13;2.17;;;11.40;99.90;;;;;;4142581;28;20494;-69
2023/01/07 01:37:20;;;;;;;1.98;1.50;;;11.40;99.90;;;;;;4140152;28;20104;-70
2023/01/07 01:39:20;;;;;;;3.33;1.80;;;11.40;99.90;;;;;;4138449;28;20137;-70
2023/01/07 01:41:21;;;;;;;2.60;1.60;;;11.40;99.90;;;;;;4143045;28;20037;-70
2023/01/07 01:43:32;;;;;;;2.22;1.58;;;11.40;99.90;;;;;;4137765;28;20031;-69
2023/01/07 01:45:33;;;;;;;1.63;1.38;;;11.40;99.90;;;;;;4133712;28;20116;-70
2023/01/07 01:47:45;;;;;;;1.27;1.13;;;11.40;99.90;;;;;;4136991;28;20114;-70
2023/01/07 01:50:00;;;;;;;2.40;1.42;;;11.40;99.90;;;;;;4156314;28;20398;-70
2023/01/07 01:52:09;;;;;;;2.47;1.65;;;11.40;99.90;;;;;;4136127;28;20029;-70
2023/01/07 01:54:12;;;;;;;3.28;1.40;;;11.40;99.90;;;;;;4143248;28;20108;-70
2023/01/07 01:56:18;;;;;;;3.33;1.65;;;11.50;99.90;;;;;;4139966;28;20037;-70
2023/01/07 01:58:26;;;;;;;2.80;1.35;;;11.40;99.90;;;;;;4150272;28;20069;-70
2023/01/07 02:00:27;;;;;;;1.50;1.30;;;11.50;99.90;;;;;;4136564;28;20042;-70
2023/01/07 02:02:38;;;;;;;2.13;1.27;;;11.50;99.90;;;;;;4143933;28;20040;-70
2023/01/07 02:04:39;;;;;;;2.10;1.40;;;11.40;99.90;;;;;;4138701;28;20038;-70
2023/01/07 02:06:57;;;;;;;3.20;1.80;;;11.50;99.90;;;;;;4111874;28;20038;-70
2023/01/07 02:09:04;;;;;;;1.70;1.50;;;11.50;99.90;;;;;;4128607;28;20044;-71
2023/01/07 02:11:27;;;;;;;2.17;1.70;;;11.50;99.90;;;;;;4125570;28;20133;-72
2023/01/07 02:13:52;;;;;;;1.80;1.20;;;11.50;99.90;;;;;;4119092;28;20037;-71
2023/01/07 02:16:05;;;;;;;3.50;1.75;;;11.50;99.90;;;;;;4152812;28;20072;-71
2023/01/07 02:18:30;;;;;;;2.53;1.58;;;11.50;99.90;;;;;;4118286;28;20042;-71
2023/01/07 02:21:19;;;;;;;1.70;1.40;;;11.50;99.90;;;;;;4134512;28;20034;-71
2023/01/07 02:23:48;;;;;;;2.85;1.65;;;11.50;99.90;;;;;;4117381;28;20125;-71
2023/01/07 02:26:03;;;;;;;2.78;1.80;;;11.50;99.90;;;;;;4123801;28;20038;-70
2023/01/07 02:28:41;;;;;;;2.03;1.40;;;11.50;99.90;;;;;;4138139;28;20037;-71
2023/01/07 02:31:12;;;;;;;1.55;1.30;;;11.50;99.90;;;;;;4112753;28;20045;-71
2023/01/07 02:33:28;;;;;;;2.35;1.60;;;11.50;99.90;;;;;;4129483;28;20049;-71
2023/01/07 02:35:56;;;;;;;1.67;1.50;;;11.50;99.90;;;;;;4144769;28;20038;-71
2023/01/07 02:38:05;;;;;;;1.60;1.25;;;11.40;99.90;;;;;;4135391;28;20054;-71
2023/01/07 02:40:25;;;;;;;1.75;1.30;;;11.50;99.90;;;;;;4113921;28;20415;-71
2023/01/07 02:42:32;;;;;;;1.35;1.25;;;11.40;99.90;;;;;;4113091;28;20448;-71
2023/01/07 02:44:51;;;;;;;2.35;1.77;;;11.50;99.90;;;;;;4135144;28;20072;-70
2023/01/07 02:47:00;;;;;;;1.65;1.48;;;11.40;99.90;;;;;;4110673;28;20510;-72
2023/01/07 02:49:07;;;;;;;1.38;1.10;;;11.40;99.90;;;;;;4136145;28;20072;-71
2023/01/07 02:51:08;;;;;;;1.88;1.48;;;11.40;99.90;;;;;;4123421;28;20069;-71
2023/01/07 02:53:13;;;;;;;1.10;1.00;;;11.40;99.90;;;;;;4120246;28;20034;-71
2023/01/07 02:55:36;;;;;;;2.08;1.17;;;11.50;99.90;;;;;;4120918;28;20034;-71
2023/01/07 02:57:39;;;;;;;1.98;1.30;;;11.50;99.90;;;;;;4126970;28;20080;-71
2023/01/07 02:59:56;;;;;;;1.52;1.20;;;11.50;99.90;;;;;;4133946;28;20093;-71
2023/01/07 03:02:29;;;;;;;1.15;1.00;;;11.40;99.90;;;;;;4152966;28;20394;-73
2023/01/07 03:04:51;;;;;;;1.80;1.20;;;11.40;99.90;;;;;;4137672;28;20080;-71
2023/01/07 03:06:53;;;;;;;2.70;1.02;;;11.50;99.90;;;;;;4140345;28;20084;-70
2023/01/07 03:09:37;;;;;;;2.33;1.10;;;11.40;99.90;;;;;;4143055;28;20037;-69
2023/01/07 03:12:05;;;;;;;1.60;1.33;;;11.40;99.90;;;;;;4136434;28;20034;-70
2023/01/07 03:14:17;;;;;;;1.85;1.08;;;11.40;99.90;;;;;;4145714;28;20046;-69
2023/01/07 03:16:28;;;;;;;1.00;0.90;;;11.40;99.90;;;;;;4155782;28;20064;-71
2023/01/07 03:18:32;;;;;;;2.00;1.00;;;11.40;99.90;;;;;;4137067;28;20030;-70
2023/01/07 03:20:37;;;;;;;1.67;1.20;;;11.40;99.90;;;;;;4124878;28;20034;-69
2023/01/07 03:22:40;;;;;;;1.52;1.20;;;11.40;99.90;;;;;;4142576;28;20096;-69
2023/01/07 03:24:48;;;;;;;;;;;11.40;99.90;;;;;;4145484;28;20390;-69
2023/01/07 03:26:53;;;;;;;2.63;1.30;;;11.40;99.90;;;;;;4129142;28;19995;-70
2023/01/07 03:28:58;;;;;;;1.13;1.02;;;11.40;99.90;;;;;;4116883;28;20038;-71
2023/01/07 03:30:59;;;;;;;1.77;1.10;;;11.40;99.90;;;;;;4134881;28;20030;-70
2023/01/07 03:33:08;;;;;;;2.05;1.00;;;11.40;99.90;;;;;;4135968;28;20129;-70
2023/01/07 03:35:10;;;;;;;1.23;1.02;;;11.40;99.90;;;;;;4128394;28;20513;-72
2023/01/07 03:37:16;;;;;;;1.50;1.10;;;11.40;99.90;;;;;;4103504;28;20039;-73
2023/01/07 03:39:24;;;;;;;1.50;1.13;;;11.40;99.90;;;;;;4132366;28;20042;-70
2023/01/07 03:44:11;;;;;;;2.22;1.33;;;11.40;99.90;;;;;;4097317;28;20055;-70
2023/01/07 03:46:14;;;;;;;1.92;1.10;;;11.40;99.90;;;;;;4107361;28;20122;-70
2023/01/07 03:48:15;;;;;;;2.67;1.10;;;11.40;99.90;;;;;;4104493;28;20066;-70
2023/01/07 03:50:17;;;;;;;1.42;1.05;;;11.40;99.90;;;;;;4144010;28;20389;-72
2023/01/07 03:52:17;;;;;;;1.10;1.00;;;11.40;99.90;;;;;;4143964;28;20038;-71
2023/01/07 03:54:18;;;;;;;2.63;1.00;;;11.40;99.90;;;;;;4136750;28;20058;-71
2023/01/07 03:56:22;;;;;;;1.75;0.90;;;11.40;99.90;;;;;;4142432;28;20030;-71
2023/01/07 03:58:22;;;;;;;4.32;0.95;;;11.40;99.90;;;;;;4140414;28;20041;-69
2023/01/07 04:00:23;;;;;;;1.45;1.20;;;11.40;99.90;;;;;;4143142;28;20035;-75
2023/01/07 04:02:25;;;;;;;1.85;1.02;;;11.40;99.90;;;;;;4144407;28;20494;-75
2023/01/07 04:04:25;;;;;;;2.30;1.00;;;11.40;99.90;;;;;;4143050;28;20043;-75
2023/01/07 04:06:26;;;;;;;1.98;1.00;;;11.40;99.90;;;;;;4133097;28;20578;-75
2023/01/07 04:08:27;;;;;;;1.23;0.80;;;11.40;99.90;;;;;;4110235;28;20114;-75
2023/01/07 04:10:33;;;;;;;1.98;1.15;;;11.40;99.90;;;;;;4134988;28;20044;-75
2023/01/07 04:12:34;;;;;;;0.70;0.70;;;11.40;99.90;;;;;;4143974;28;20088;-75
2023/01/07 04:14:35;;;;;;;1.30;0.80;;;11.40;99.90;;;;;;4141790;28;20029;-76
2023/01/07 04:16:35;;;;;;;1.30;0.95;;;11.40;99.90;;;;;;4135374;28;20086;-72
2023/01/07 04:18:36;;;;;;;1.05;0.80;;;11.40;99.90;;;;;;4139411;28;20039;-74
2023/01/07 04:20:37;;;;;;;0.52;0.52;;;11.40;99.90;;;;;;4158865;28;20034;-74
2023/01/07 04:22:37;;;;;;;1.00;0.77;;;11.40;99.90;;;;;;4126886;28;20118;-75
2023/01/07 04:24:38;;;;;;;0.98;0.70;;;11.30;99.90;;;;;;4141399;28;20367;-74
2023/01/07 04:26:39;;;;;;;1.65;0.60;;;11.40;99.90;;;;;;4123539;28;20046;-75
2023/01/07 04:28:39;;;;;;;1.38;1.00;;;11.30;99.90;;;;;;4153113;28;20041;-75
2023/01/07 04:30:40;;;;;;;2.58;0.70;;;11.30;99.90;;;;;;4139020;28;20033;-75
2023/01/07 04:32:41;;;;;;;1.80;0.95;;;11.30;99.90;;;;;;4117083;28;20031;-74
2023/01/07 04:34:42;;;;;;;0.98;0.65;;;11.40;99.90;;;;;;4132464;28;20418;-75
2023/01/07 04:36:42;;;;;;;0.68;0.68;;;11.40;99.90;;;;;;4129183;28;20144;-73
2023/01/07 04:38:43;;;;;;;0.70;0.60;;;11.40;99.90;;;;;;4136933;28;20034;-74
2023/01/07 04:40:44;;;;;;;1.15;0.77;;;11.30;99.90;;;;;;4131822;28;20429;-74
2023/01/07 04:42:44;;;;;;;3.40;1.08;;;11.30;99.90;;;;;;4130484;28;20113;-75
2023/01/07 04:44:45;;;;;;;0.90;0.50;;;11.40;99.90;;;;;;4146786;28;20308;-75
2023/01/07 04:46:45;;;;;;;1.55;0.75;;;11.40;99.90;;;;;;4133334;28;20030;-75
2023/01/07 04:48:46;;;;;;;1.33;0.90;;;11.30;99.90;;;;;;4135520;28;20423;-73
2023/01/07 04:50:47;;;;;;;2.63;0.95;;;11.30;99.90;;;;;;4141776;28;20176;-74
2023/01/07 04:52:48;;;;;;;1.40;0.68;;;11.30;99.90;;;;;;4126832;28;20101;-74
2023/01/07 04:54:48;;;;;;;1.33;0.60;;;11.30;99.90;;;;;;4125955;28;20030;-75
2023/01/07 04:56:49;;;;;;;2.63;1.00;;;11.20;99.90;;;;;;4140062;28;20038;-75
2023/01/07 04:58:50;;;;;;;1.05;0.65;;;11.20;99.90;;;;;;4140190;28;20084;-75
2023/01/07 05:00:54;;;;;;;2.15;0.68;;;11.20;99.90;;;;;;4156893;28;20041;-74
2023/01/07 05:02:54;;;;;;;2.47;0.90;;;11.20;99.90;;;;;;4130166;28;20035;-75
2023/01/07 05:04:55;;;;;;;1.27;0.82;;;11.20;99.90;;;;;;4130779;28;20037;-75
2023/01/07 05:06:58;;;;;;;0.77;0.70;;;11.20;99.90;;;;;;4104941;28;20125;-75
2023/01/07 05:08:59;;;;;;;1.75;0.90;;;11.20;99.90;;;;;;4146005;28;20502;-75
2023/01/07 05:11:01;;;;;;;3.22;1.05;;;11.20;99.90;;;;;;4139961;28;20041;-74
2023/01/07 05:13:04;;;;;;;1.50;0.68;;;11.20;99.90;;;;;;4139053;28;20064;-75
2023/01/07 05:15:06;;;;;;;0.70;0.50;;;11.20;99.90;;;;;;4124610;28;20026;-75
2023/01/07 05:17:07;;;;;;;1.20;0.80;;;11.10;99.90;;;;;;4133302;28;20055;-74
2023/01/07 05:19:12;;;;;;;1.40;0.80;;;11.10;99.90;;;;;;4115082;28;20035;-75
2023/01/07 05:21:12;;;;;;;1.00;0.80;;;11.10;99.90;;;;;;4114740;28;20176;-75
2023/01/07 05:23:16;;;;;;;1.60;0.90;;;11.00;99.90;;;;;;4125920;28;20565;-74
2023/01/07 05:25:16;;;;;;;1.60;0.82;;;11.00;99.90;;;;;;4125375;28;20044;-74
2023/01/07 05:27:20;;;;;;;0.57;0.57;;;11.00;99.90;;;;;;4138643;28;20030;-75
2023/01/07 05:29:23;;;;;;;1.00;0.70;;;10.90;99.90;;;;;;4137101;28;20512;-74
2023/01/07 05:31:24;;;;;;;2.88;0.93;;;10.90;99.90;;;;;;4143845;28;20033;-75
2023/01/07 05:33:24;;;;;;;2.10;0.93;;;10.90;99.90;;;;;;4141331;28;20076;-74
2023/01/07 05:35:25;;;;;;;1.77;0.80;;;10.90;99.90;;;;;;4141481;28;20030;-74
2023/01/07 05:37:46;;;;;;;2.55;0.77;;;10.90;99.90;;;;;;4140193;28;20037;-72
2023/01/07 05:39:47;;;;;;;1.20;0.85;;;10.80;99.90;;;;;;4140304;28;20128;-72
2023/01/07 05:41:48;;;;;;;1.13;0.82;;;10.80;99.90;;;;;;4139595;28;20083;-74
2023/01/07 05:43:48;;;;;;;1.30;0.77;;;10.80;99.90;;;;;;4140598;28;20029;-74
2023/01/07 05:45:49;;;;;;;1.35;0.80;;;10.70;99.90;;;;;;4133395;28;20022;-74
2023/01/07 05:47:49;;;;;;;1.83;1.02;;;10.70;99.90;;;;;;4118058;28;20050;-74
2023/01/07 05:49:50;;;;;;;1.92;0.90;;;10.70;99.90;;;;;;4116222;28;20088;-75
2023/01/07 05:51:51;;;;;;;3.10;1.10;;;10.60;99.90;;;;;;4141911;28;20029;-74
2023/01/07 05:53:52;;;;;;;1.73;1.10;;;10.60;99.90;;;;;;4140123;28;20062;-74
2023/01/07 05:55:59;;;;;;;1.35;0.90;;;10.60;99.90;;;;;;4137243;28;20518;-74
2023/01/07 05:58:00;;;;;;;1.30;0.75;;;10.50;99.90;;;;;;4136165;28;20030;-74
2023/01/07 06:00:00;;;;;;;1.05;0.70;;;10.50;99.90;;;;;;4132204;28;20038;-74
2023/01/07 06:02:01;;;;;;;1.02;0.80;;;10.50;99.90;;;;;;4139590;28;20045;-75
2023/01/07 06:04:02;;;;;;;1.50;1.00;;;10.50;99.90;;;;;;4122453;28;20519;-75
2023/01/07 06:06:05;;;;;;;1.65;1.13;;;10.50;99.90;;;;;;4140392;28;20046;-75
2023/01/07 06:08:06;;;;;;;1.10;0.80;;;10.40;99.90;;;;;;4119833;28;20048;-74
2023/01/07 06:10:07;;;;;;;2.20;0.95;;;10.40;99.90;;;;;;4140907;28;20171;-74
2023/01/07 06:12:08;;;;;;;1.90;1.00;;;10.40;99.90;;;;;;4124265;28;20042;-75
2023/01/07 06:14:08;;;;;;;1.45;1.10;;;10.40;99.90;;;;;;4140145;28;20042;-74
2023/01/07 06:16:12;;;;;;;3.15;1.10;;;10.40;99.90;;;;;;4140678;28;20416;-74
2023/01/07 06:18:13;;;;;;;1.63;0.82;;;10.40;99.90;;;;;;4137239;28;20502;-74
2023/01/07 06:20:16;;;;;;;1.10;0.80;;;10.40;99.90;;;;;;4136959;28;20033;-74
2023/01/07 06:22:17;;;;;;;1.42;1.02;;;10.40;99.90;;;;;;4136051;28;20133;-74
2023/01/07 06:24:20;;;;;;;1.05;0.82;;;10.40;99.90;;;;;;4126772;28;20040;-74
2023/01/07 06:26:24;;;;;;;1.13;0.80;;;10.40;99.90;;;;;;4137131;28;20152;-74
2023/01/07 06:28:25;;;;;;;1.08;0.90;;;10.40;99.90;;;;;;4136812;28;20523;-74
2023/01/07 06:30:26;;;;;;;1.23;0.95;;;10.40;99.90;;;;;;4128672;28;20039;-74
2023/01/07 06:32:29;;;;;;;1.23;0.90;;;10.40;99.90;;;;;;4130863;28;20034;-75
2023/01/07 06:34:30;;;;;;;1.13;0.80;;;10.40;99.90;;;;;;4139308;28;20038;-74
2023/01/07 06:36:31;;;;;;;0.55;0.55;;;10.40;99.90;;;;;;4126872;28;20088;-74
2023/01/07 06:38:31;;;;;;;2.47;0.93;;;10.40;99.90;;;;;;4136647;28;20045;-74
2023/01/07 06:40:32;;;;;;;1.63;0.93;;;10.40;99.90;;;;;;4126551;28;20034;-74
2023/01/07 06:42:33;;;;;;;2.40;1.00;;;10.40;99.90;;;;;;4145911;28;20042;-75
2023/01/07 06:44:34;;;;;;;1.23;1.02;;;10.40;99.90;;;;;;4134167;28;20031;-75
2023/01/07 06:46:35;;;;;;;7.07;1.15;;;10.40;99.90;;;;;;4123359;28;20042;-74
2023/01/07 06:48:35;;;;;;;1.95;1.15;;;10.40;99.90;;;;;;4140338;28;20045;-75
2023/01/07 06:50:36;;;;;;;2.58;1.10;;;10.40;99.90;;;;;;4144308;28;20030;-75
2023/01/07 06:52:37;;;;;;;2.20;1.10;;;10.40;99.90;;;;;;4126416;28;20068;-74
2023/01/07 06:54:38;;;;;;;1.20;0.98;;;10.30;99.90;;;;;;4111295;28;20061;-74
2023/01/07 06:56:39;;;;;;;1.20;1.00;;;10.30;99.90;;;;;;4142419;28;20042;-73
2023/01/07 06:58:39;;;;;;;3.30;1.10;;;10.40;99.90;;;;;;4141652;28;20037;-72
2023/01/07 07:00:40;;;;;;;1.13;0.90;;;10.30;99.90;;;;;;4134955;28;20026;-74
2023/01/07 07:02:40;;;;;;;2.13;0.95;;;10.40;99.90;;;;;;4142649;28;20132;-74
2023/01/07 07:04:41;;;;;;;2.15;1.10;;;10.40;99.90;;;;;;4139956;28;20458;-74
2023/01/07 07:06:42;;;;;;;2.42;0.90;;;10.40;99.90;;;;;;4141418;28;20041;-74
2023/01/07 07:08:42;;;;;;;1.67;0.90;;;10.40;99.90;;;;;;4159834;28;20030;-74
2023/01/07 07:10:43;;;;;;;1.23;0.90;;;10.40;99.90;;;;;;4142171;28;20033;-75
2023/01/07 07:12:43;;;;;;;0.95;0.80;;;10.40;99.90;;;;;;4145096;28;20038;-75
2023/01/07 07:14:44;;;;;;;2.17;1.00;;;10.50;99.90;;;;;;4134605;28;20069;-75
2023/01/07 07:16:45;;;;;;;2.47;1.17;;;10.50;99.90;;;;;;4138238;28;20050;-73
2023/01/07 07:18:48;;;;;;;2.80;1.00;;;10.50;99.90;;;;;;4148632;28;20523;-74
2023/01/07 07:20:49;;;;;;;2.25;1.17;;;10.50;99.90;;;;;;4134210;28;20615;-73
2023/01/07 07:22:49;;;;;;;2.00;1.17;;;10.40;99.90;;;;;;4138402;28;20041;-74
2023/01/07 07:24:50;;;;;;;1.63;1.00;;;10.50;99.90;;;;;;4138147;28;20407;-74
2023/01/07 07:26:51;;;;;;;2.65;1.08;;;10.50;99.90;;;;;;4141142;28;20080;-74
2023/01/07 07:28:51;;;;;;;2.35;1.30;;;10.50;99.90;;;;;;4149358;28;20026;-75
2023/01/07 07:30:52;;;;;;;1.55;1.08;;;10.50;99.90;;;;;;4146035;28;20169;-74
2023/01/07 07:32:53;;;;;;;2.80;1.05;;;10.40;99.90;;;;;;4140827;28;20038;-75
2023/01/07 07:34:54;;;;;;;1.33;1.00;;;10.50;99.90;;;;;;4148753;28;20073;-75
2023/01/07 07:36:55;;;;;;;2.20;1.30;;;10.50;99.90;;;;;;4144758;28;20406;-74
2023/01/07 07:38:56;;;;;;;2.25;1.40;;;10.50;99.90;;;;;;4144087;28;20356;-74
2023/01/07 07:40:57;;;;;;;3.65;1.17;;;10.50;99.90;;;;;;4141751;28;20030;-72
2023/01/07 07:42:59;;;;;;;5.07;1.30;;;10.40;99.90;;;;;;4156887;28;20033;-75
2023/01/07 07:44:59;;;;;;;1.42;1.17;;;10.40;99.90;;;;;;4143104;28;20045;-74
2023/01/07 07:47:00;;;;;;;2.00;1.40;;;10.50;99.90;;;;;;4139613;28;20062;-74
2023/01/07 07:49:01;;;;;;;3.47;1.20;;;10.40;99.90;;;;;;4140191;28;20038;-74
2023/01/07 07:51:01;;;;;;;2.30;1.35;;;10.50;99.90;;;;;;4143116;28;20042;-75
2023/01/07 07:53:03;;;;;;;1.00;0.90;;;10.40;99.90;;;;;;4141564;28;20057;-74
2023/01/07 07:55:04;;;;;;;1.52;1.30;;;10.50;99.90;;;;;;4141883;28;20061;-74
2023/01/07 07:57:05;;;;;;;2.88;1.27;;;10.50;99.90;;;;;;4138021;28;20048;-75
2023/01/07 07:59:05;;;;;;;1.55;1.20;;;10.40;99.90;;;;;;4139285;28;20030;-74
2023/01/07 08:01:06;;;;;;;2.70;1.42;;;10.40;99.90;;;;;;4127652;28;20117;-75
2023/01/07 08:03:06;;;;;;;3.10;1.40;;;10.40;99.90;;;;;;4138430;28;20045;-75
2023/01/07 08:05:10;;;;;;;2.15;1.10;;;10.40;99.90;;;;;;4145797;28;20034;-74
2023/01/07 08:07:11;;;;;;;2.72;1.42;;;10.40;99.90;;;;;;4139580;28;20556;-75
2023/01/07 08:09:12;;;;;;;2.65;1.00;;;10.50;99.90;;;;;;4131955;28;20088;-74
2023/01/07 08:11:12;;;;;;;1.70;0.98;;;10.40;99.90;;;;;;4142921;28;20120;-74
2023/01/07 08:13:13;;;;;;;1.30;0.95;;;10.40;99.90;;;;;;4144075;28;20110;-75
2023/01/07 08:15:17;;;;;;;2.42;1.30;;;10.40;99.90;;;;;;4125344;28;20038;-75
2023/01/07 08:17:17;;;;;;;2.50;1.30;;;10.50;99.90;;;;;;4139830;28;20049;-75
2023/01/07 08:19:18;;;;;;;1.60;1.20;;;10.50;99.90;;;;;;4137528;28;20030;-75
2023/01/07 08:21:19;;;;;;;4.05;1.13;;;10.50;99.90;;;;;;4133360;28;20061;-75
2023/01/07 08:23:19;;;;;;;2.00;0.90;;;10.50;99.90;;;;;;4117679;28;20145;-73
2023/01/07 08:25:20;;;;;;;1.98;1.00;;;10.50;99.90;;;;;;4157404;28;20117;-74
2023/01/07 08:27:21;;;;;;;2.15;1.10;;;10.60;99.90;;;;;;4137736;28;20471;-74
2023/01/07 08:29:22;;;;;;;3.08;1.10;;;10.50;99.90;;;;;;4145818;28;20048;-74
2023/01/07 08:31:23;;;;;;;1.05;0.77;;;10.60;99.90;;;;;;4135749;28;20576;-74
2023/01/07 08:33:24;;;;;;;3.15;1.35;;;10.60;99.90;;;;;;4135979;28;20062;-74
2023/01/07 08:35:24;;;;;;;2.92;0.90;;;10.60;99.90;;;;;;4139723;28;20037;-74
2023/01/07 08:37:27;;;;;;;2.63;1.15;;;10.60;99.90;;;;;;4139306;28;20080;-75
2023/01/07 08:39:28;;;;;;;2.08;0.98;;;10.70;99.90;;;;;;4140833;28;20399;-74
2023/01/07 08:41:29;;;;;;;2.35;1.20;;;10.60;99.90;;;;;;4134849;28;20030;-75
2023/01/07 08:43:30;;;;;;;4.22;1.40;;;10.70;99.90;;;;;;4144911;28;20034;-73
2023/01/07 08:45:31;;;;;;;4.93;1.00;;;10.70;99.90;;;;;;4141711;28;20164;-74
2023/01/07 08:47:32;;;;;;;0.98;0.90;;;10.70;99.90;;;;;;4137638;28;20033;-74
2023/01/07 08:49:33;;;;;;;1.13;0.95;;;10.70;99.90;;;;;;4134429;28;20041;-75
2023/01/07 08:51:33;;;;;;;2.83;0.90;;;10.80;99.90;;;;;;4140480;28;20114;-75
2023/01/07 08:53:34;;;;;;;2.28;0.77;;;10.80;99.90;;;;;;4138684;28;20121;-75
2023/01/07 08:55:34;;;;;;;2.60;1.08;;;10.80;99.90;;;;;;4153533;28;20371;-73
2023/01/07 08:57:35;;;;;;;2.55;1.17;;;10.80;99.90;;;;;;4154875;28;20056;-75
2023/01/07 08:59:37;;;;;;;2.38;1.10;;;10.80;99.90;;;;;;4133584;28;20037;-74
2023/01/07 09:01:38;;;;;;;1.38;0.90;;;10.80;99.90;;;;;;4134673;28;20109;-74
2023/01/07 09:03:38;;;;;;;2.13;0.93;;;10.80;99.90;;;;;;4141004;28;20038;-73
2023/01/07 09:05:39;;;;;;;1.90;0.93;;;10.80;99.90;;;;;;4136426;28;21582;-72
2023/01/07 09:07:40;;;;;;;2.15;0.95;;;10.90;99.90;;;;;;4147462;28;20083;-72
2023/01/07 09:09:41;;;;;;;1.17;0.75;;;10.90;99.90;;;;;;4140124;28;20057;-73
2023/01/07 09:11:42;;;;;;;2.78;0.60;;;10.90;99.90;;;;;;4141888;28;20034;-73
2023/01/07 09:13:43;;;;;;;4.22;1.40;;;10.90;99.90;;;;;;4156343;28;20035;-73
2023/01/07 09:15:44;;;;;;;3.70;0.82;;;10.90;99.90;;;;;;4129242;28;20030;-72
2023/01/07 09:17:45;;;;;;;0.93;0.75;;;10.90;99.90;;;;;;4133795;28;20068;-73
2023/01/07 09:19:45;;;;;;;2.17;1.08;;;11.00;99.90;;;;;;4113124;28;20110;-73
2023/01/07 09:21:46;;;;;;;2.45;0.90;;;11.00;99.90;;;;;;4132645;28;20147;-73
2023/01/07 09:23:47;;;;;;;1.50;1.00;;;11.00;99.90;;;;;;4132821;28;20070;-73
2023/01/07 09:25:50;;;;;;;1.17;0.80;;;11.00;99.90;;;;;;4132435;28;20701;-76
2023/01/07 09:27:54;;;;;;;3.47;1.10;;;11.00;99.90;;;;;;4143743;28;20064;-73
2023/01/07 09:29:57;;;;;;;3.03;1.17;;;11.10;99.90;;;;;;4137088;28;20034;-72
2023/01/07 09:31:57;;;;;;;2.85;1.23;;;11.10;99.90;;;;;;4152975;28;20479;-72
2023/01/07 09:33:58;;;;;;;0.88;0.80;;;11.00;99.90;;;;;;4124677;28;20111;-71
2023/01/07 09:35:59;;;;;;;1.65;0.80;;;11.10;99.90;;;;;;4140824;28;20040;-72
2023/01/07 09:37:59;;;;;;;1.58;1.10;;;11.10;99.90;;;;;;4153534;28;20117;-75
2023/01/07 09:40:00;;;;;;;5.25;1.08;;;11.10;99.90;;;;;;4140585;28;20513;-74
2023/01/07 09:42:12;;;;;;;2.15;1.08;;;11.10;99.90;;;;;;4140953;28;20123;-75
2023/01/07 09:44:43;;;;;;;3.03;1.05;;;11.10;99.90;;;;;;4118278;28;20483;-75
2023/01/07 09:46:46;;;;;;;2.78;1.10;;;11.10;99.90;;;;;;4145999;28;20388;-74
2023/01/07 09:48:56;;;;;;;2.65;1.42;;;11.10;99.90;;;;;;4134347;28;20037;-72
2023/01/07 09:51:06;;;;;;;2.75;1.10;;;11.10;99.90;;;;;;4139634;28;20445;-75
2023/01/07 09:53:13;;;;;;;3.47;1.10;;;11.10;99.90;;;;;;4137185;28;20049;-74
2023/01/07 09:55:22;;;;;;;2.00;1.00;;;11.10;99.90;;;;;;4113855;28;20042;-73
2023/01/07 09:57:26;;;;;;;1.75;0.93;;;11.20;99.90;;;;;;4132194;28;20582;-74
2023/01/07 09:59:27;;;;;;;3.22;1.10;;;11.20;99.90;;;;;;4136483;28;20422;-76
2023/01/07 10:01:51;;;;;;;2.35;1.50;;;11.10;99.90;;;;;;4141026;28;20045;-77
2023/01/07 10:04:19;;;;;;;2.05;1.20;;;11.20;99.90;;;;;;4136926;28;20505;-77
2023/01/07 10:06:52;;;;;;;1.98;1.27;;;11.20;99.90;;;;;;4137747;28;20425;-76
2023/01/07 10:09:10;;;;;;;4.72;1.40;;;11.20;99.90;;;;;;4140131;28;20421;-76
2023/01/07 10:11:24;;;;;;;2.33;1.50;;;11.30;99.90;;;;;;4140456;28;20418;-76
2023/01/07 10:13:49;;;;;;;2.78;1.60;;;11.40;99.90;;;;;;4138923;28;20042;-77
2023/01/07 10:16:02;;;;;;;2.50;1.20;;;11.50;99.90;;;;;;4137065;28;20077;-75
2023/01/07 10:18:11;;;;;;;2.85;1.33;;;11.50;99.90;;;;;;4130829;28;20137;-76
2023/01/07 10:20:33;;;;;;;2.70;1.40;;;11.60;99.90;;;;;;4140256;28;20038;-77
2023/01/07 10:22:44;;;;;;;2.67;1.23;;;11.60;99.90;;;;;;4139822;28;20042;-76
2023/01/07 10:24:51;;;;;;;1.55;1.23;;;11.70;99.90;;;;;;4130008;28;20110;-77
2023/01/07 10:26:56;;;;;;;2.65;1.42;;;11.70;99.90;;;;;;4134378;28;20068;-77
2023/01/07 10:29:40;;;;;;;1.73;1.02;;;11.70;99.90;;;;;;4130869;28;20033;-76
2023/01/07 10:31:44;;;;;;;1.75;1.30;;;11.80;99.90;;;;;;4125350;28;20029;-77
2023/01/07 10:33:47;;;;;;;2.17;0.95;;;11.80;99.90;;;;;;4149087;28;20034;-77
2023/01/07 10:35:56;;;;;;;2.10;1.33;;;11.80;99.90;;;;;;4133318;28;20062;-76
2023/01/07 10:38:02;;;;;;;2.85;1.20;;;11.80;99.90;;;;;;4126202;28;20034;-77
2023/01/07 10:40:20;;;;;;;2.28;1.27;;;11.90;99.90;;;;;;4132025;28;20399;-76
2023/01/07 10:42:50;;;;;;;1.67;0.98;;;12.00;99.90;;;;;;4122706;28;20125;-74
2023/01/07 10:45:06;;;;;;;2.67;1.13;;;11.90;99.90;;;;;;4137784;28;20038;-77
2023/01/07 10:47:35;;;;;;;4.60;1.42;;;11.90;99.90;;;;;;4141454;28;20151;-77
2023/01/07 10:49:56;;;;;;;2.30;1.10;;;11.90;99.90;;;;;;4130248;28;20041;-76
2023/01/07 10:52:11;;;;;;;2.20;1.05;;;11.90;99.90;;;;;;4126641;28;20109;-76